Pequea, PA

02:46 EDT je la 28an de septembro 2016 (GMT -0400)
Pequea, PA | | Change Station

Elev 463 ft 39.92 °N, 76.30 °W | Updated 6 minutes ago

Overcast
Nuboplena
53.4 °F
Sentas kiel 53.4 °F
N
0.0
Vento Varianta Vento from OrSOr
Gusts 0.0 mej/h

hodiaŭ
High -- | Low -- °F
--% Ebla precip.
hieraŭ
High -- | Low -- °F
Precip. -- co
Aerpremo 29.99 co
Vidodistanco 7.0 mejloj
Nuboj Nuboplena 900 ft
Rosopunkto 51 °F
Humido 91%
Pluvokvanto 0.00 co
Neĝprofundo Not available.
6:59 AM 6:51 PM
Malkreskanta Lunarko, 7% visible
SPECI KLNS 280639Z AUTO 00000KT 7SM OVC009 14/14 A2999 RMK AO2 T01440139
Aerpremo 29.99 co
Vidodistanco 7.0 mejloj
Nuboj Nuboplena 900 ft
Rosopunkto 51 °F
Humido 91%
Pluvokvanto 0.00 co
Neĝprofundo Not available.
6:59 AM 6:51 PM
Malkreskanta Lunarko, 7% visible
SPECI KLNS 280639Z AUTO 00000KT 7SM OVC009 14/14 A2999 RMK AO2 T01440139

10-Day Weather Forecast

Almanac

Astronomio

Sep. 28, 2016 Leviĝo Subiro
Aktuala tempo
Civila krepusko
Naŭtika krepusko
Astronomia krepusko
Luno
Daŭro de videbla lumo
Daŭro de tago
Tomorrow will be .
, % of the Moon is Illuminated

Hodiaŭaj ekstremaĵoj

State Highs State Lows

Community

WunderPhotos

Upload Photos

1,942,216 photos uploaded!

WunderBlog® & News

Nearby

Aerkvalito

  Aerkvalito Aerkvalita indico Poluanto
Not available.

Neĝa profundeco

Station Depth Alteco

Earthquake Activity

Urbo Distance Mag. Time & Date
Minimum magnitude displayed is 2.5.

Coastal Water Temperatures

Loko Temperaturo

Stations

Najbaraj veter-stacioj

Loko de stacio Temp Venta
kvazaŭtemperaturo
Rosopunkto Humido Vento Precip. Elev Ĝisdatigita je Tipo
                   

Watches & Warnings

There are currently no watches in effect.